createdAt,value
2018-03-28T00:00:22.525Z,100570.58
2018-03-28T00:02:51.660Z,100570.39
2018-03-28T00:05:20.001Z,100567.21
2018-03-28T00:07:49.152Z,100573.88
2018-03-28T00:10:17.506Z,100578.58
2018-03-28T00:12:46.495Z,100581.85
2018-03-28T00:15:14.872Z,100581.22
2018-03-28T00:17:43.954Z,100582.14
2018-03-28T00:20:13.084Z,100582.05
2018-03-28T00:22:41.466Z,100579.59
2018-03-28T00:25:09.788Z,100570.68
2018-03-28T00:27:38.138Z,100581.24
2018-03-28T00:30:06.479Z,100581.36
2018-03-28T00:32:34.916Z,100581.77
2018-03-28T00:35:03.260Z,100582.56
2018-03-28T00:37:31.637Z,100579.80
2018-03-28T00:40:00.005Z,100571.70
2018-03-28T00:42:29.161Z,100573.25
2018-03-28T00:44:57.514Z,100571.61
2018-03-28T00:47:26.644Z,100579.70
2018-03-28T00:49:55.355Z,100576.21
2018-03-28T00:52:23.806Z,100569.05
2018-03-28T00:54:52.121Z,100575.08
2018-03-28T00:57:20.539Z,100570.44
2018-03-28T00:59:49.738Z,100567.78
2018-03-28T01:02:18.236Z,100570.00
2018-03-28T01:04:47.340Z,100569.59
2018-03-28T01:07:17.289Z,100571.44
2018-03-28T01:09:45.640Z,100571.44
2018-03-28T01:12:14.788Z,100566.31
2018-03-28T01:14:43.144Z,100563.94
2018-03-28T01:17:11.472Z,100565.86
2018-03-28T01:19:39.824Z,100561.75
2018-03-28T01:22:08.272Z,100561.12
2018-03-28T01:24:36.705Z,100561.71
2018-03-28T01:27:05.078Z,100555.95
2018-03-28T01:29:33.438Z,100559.13
2018-03-28T01:32:01.831Z,100561.84
2018-03-28T01:34:30.998Z,100566.03
2018-03-28T01:37:00.161Z,100564.08
2018-03-28T01:39:28.594Z,100566.93
2018-03-28T01:41:57.734Z,100569.86
2018-03-28T01:44:26.074Z,100563.59
2018-03-28T01:46:54.480Z,100559.48
2018-03-28T01:49:22.868Z,100561.95
2018-03-28T01:51:51.303Z,100551.59
2018-03-28T01:54:20.390Z,100547.00
2018-03-28T01:56:48.793Z,100543.31
2018-03-28T01:59:17.135Z,100547.34
2018-03-28T02:01:45.610Z,100543.41
2018-03-28T02:04:13.984Z,100546.78
2018-03-28T02:06:42.356Z,100543.92
2018-03-28T02:09:10.757Z,100538.89
2018-03-28T02:11:39.070Z,100539.72
2018-03-28T02:14:07.436Z,100533.06
2018-03-28T02:16:35.893Z,100538.09
2018-03-28T02:19:04.270Z,100527.04
2018-03-28T02:21:32.638Z,100523.05
2018-03-28T02:24:01.029Z,100525.70
2018-03-28T02:26:29.376Z,100534.92
2018-03-28T02:28:58.514Z,100541.87
2018-03-28T02:31:26.963Z,100546.24
2018-03-28T02:33:56.088Z,100550.55
2018-03-28T02:36:24.483Z,100547.98
2018-03-28T02:38:52.916Z,100541.84
2018-03-28T02:41:21.273Z,100538.16
2018-03-28T02:43:50.418Z,100535.72
2018-03-28T02:46:19.606Z,100530.62
2018-03-28T02:48:48.710Z,100526.02
2018-03-28T02:51:17.069Z,100534.42
2018-03-28T02:53:45.471Z,100530.52
2018-03-28T02:56:13.840Z,100518.36
2018-03-28T02:58:42.933Z,100527.57
2018-03-28T03:01:11.341Z,100526.88
2018-03-28T03:03:40.498Z,100520.81
2018-03-28T03:06:08.824Z,100515.08
2018-03-28T03:08:37.230Z,100522.46
2018-03-28T03:11:05.614Z,100520.52
2018-03-28T03:13:34.790Z,100512.95
2018-03-28T03:16:03.981Z,100513.17
2018-03-28T03:18:33.121Z,100504.45
2018-03-28T03:21:01.463Z,100509.56
2018-03-28T03:23:30.566Z,100507.32
2018-03-28T03:25:58.956Z,100519.08
2018-03-28T03:28:27.271Z,100526.45
2018-03-28T03:30:57.182Z,100528.80
2018-03-28T03:33:25.551Z,100530.12
2018-03-28T03:35:53.908Z,100526.95
2018-03-28T03:38:23.094Z,100529.02
2018-03-28T03:40:51.448Z,100535.75
2018-03-28T03:43:19.810Z,100531.44
2018-03-28T03:45:48.242Z,100536.25
2018-03-28T03:48:17.388Z,100525.90
2018-03-28T03:50:45.791Z,100531.30
2018-03-28T03:53:14.156Z,100527.30
2018-03-28T03:55:42.490Z,100533.52
2018-03-28T03:58:10.829Z,100533.81
2018-03-28T04:00:39.172Z,100534.50
2018-03-28T04:03:07.524Z,100535.62
2018-03-28T04:05:36.651Z,100521.50
2018-03-28T04:08:05.006Z,100531.73
2018-03-28T04:10:33.406Z,100539.90
2018-03-28T04:13:03.270Z,100530.81
2018-03-28T04:15:31.640Z,100532.45
2018-03-28T04:17:59.966Z,100539.52
2018-03-28T04:20:29.916Z,100540.11
2018-03-28T04:22:59.036Z,100538.50
2018-03-28T04:25:27.354Z,100545.47
2018-03-28T04:27:55.662Z,100536.98
2018-03-28T04:30:24.776Z,100544.23
2018-03-28T04:32:53.859Z,100531.22
2018-03-28T04:35:22.935Z,100536.66
2018-03-28T04:37:51.317Z,100539.70
2018-03-28T04:40:19.664Z,100535.72
2018-03-28T04:42:47.995Z,100534.29
2018-03-28T04:45:16.337Z,100537.27
2018-03-28T04:47:44.659Z,100535.55
2018-03-28T04:50:12.993Z,100524.30
2018-03-28T04:52:41.370Z,100535.89
2018-03-28T04:55:09.763Z,100529.78
2018-03-28T04:57:38.075Z,100533.26
2018-03-28T05:00:06.393Z,100535.09
2018-03-28T05:02:34.731Z,100530.40
2018-03-28T05:05:03.057Z,100532.53
2018-03-28T05:07:31.411Z,100531.39
2018-03-28T05:09:59.717Z,100532.63
2018-03-28T05:12:28.063Z,100535.60
2018-03-28T05:14:57.317Z,100533.86
2018-03-28T05:17:25.618Z,100525.37
2018-03-28T05:19:53.929Z,100529.14
2018-03-28T05:22:23.024Z,100529.96
2018-03-28T05:24:52.860Z,100521.98
2018-03-28T05:27:21.971Z,100517.38
2018-03-28T05:29:51.102Z,100514.12
2018-03-28T05:32:19.543Z,100520.16
2018-03-28T05:34:48.665Z,100517.50
2018-03-28T05:37:17.107Z,100513.22
2018-03-28T05:39:46.225Z,100515.81
2018-03-28T05:42:15.308Z,100522.77
2018-03-28T05:44:43.672Z,100523.91
2018-03-28T05:47:12.253Z,100520.62
2018-03-28T05:49:40.753Z,100518.30
2018-03-28T05:52:09.125Z,100513.41
2018-03-28T05:54:38.256Z,100519.67
2018-03-28T05:57:07.376Z,100512.80
2018-03-28T05:59:35.719Z,100519.86
2018-03-28T06:02:04.299Z,100519.88
2018-03-28T06:04:32.636Z,100520.02
2018-03-28T06:07:00.937Z,100517.89
2018-03-28T06:09:29.295Z,100509.09
2018-03-28T06:11:57.625Z,100504.95
2018-03-28T06:14:25.984Z,100506.00
2018-03-28T06:16:54.769Z,100503.34
2018-03-28T06:19:23.111Z,100506.52
2018-03-28T06:21:52.845Z,100512.52
2018-03-28T06:24:21.185Z,100511.89
2018-03-28T06:26:49.524Z,100507.81
2018-03-28T06:29:18.895Z,100508.34
2018-03-28T06:31:48.085Z,100505.05
2018-03-28T06:34:17.225Z,100504.34
2018-03-28T06:36:45.574Z,100499.50
2018-03-28T06:39:13.997Z,100497.47
2018-03-28T06:41:42.339Z,100490.67
2018-03-28T06:44:11.437Z,100487.30
2018-03-28T06:46:40.556Z,100484.81
2018-03-28T06:49:08.986Z,100483.14
2018-03-28T06:51:37.351Z,100479.41
2018-03-28T06:54:05.679Z,100477.31
2018-03-28T06:56:34.757Z,100473.46
2018-03-28T06:59:03.107Z,100472.98
2018-03-28T07:01:31.438Z,100470.56
2018-03-28T07:04:00.566Z,100474.18
2018-03-28T07:06:28.879Z,100468.28
2018-03-28T07:08:57.204Z,100467.97
2018-03-28T07:11:25.540Z,100468.09
2018-03-28T07:13:53.859Z,100465.32
2018-03-28T07:16:22.989Z,100467.52
2018-03-28T07:18:52.191Z,100463.80
2018-03-28T07:21:20.526Z,100448.42
2018-03-28T07:23:48.827Z,100438.90
2018-03-28T07:26:17.167Z,100432.71
2018-03-28T07:28:45.737Z,100426.13
2018-03-28T07:31:14.054Z,100427.22
2018-03-28T07:33:42.395Z,100425.56
2018-03-28T07:36:11.661Z,100426.46
2018-03-28T07:38:40.797Z,100429.77
2018-03-28T07:41:09.153Z,100426.76
2018-03-28T07:43:38.413Z,100418.05
2018-03-28T07:46:06.777Z,100419.03
2018-03-28T07:48:35.197Z,100420.30
2018-03-28T07:51:03.530Z,100409.03
2018-03-28T07:53:31.927Z,100407.96
2018-03-28T07:56:00.379Z,100400.59
2018-03-28T07:58:28.744Z,100394.56
2018-03-28T08:00:57.831Z,100393.78
2018-03-28T08:03:26.145Z,100393.48
2018-03-28T08:05:54.492Z,100387.98
2018-03-28T08:08:22.815Z,100393.11
2018-03-28T08:10:51.149Z,100394.12
2018-03-28T08:13:19.577Z,100402.23
2018-03-28T08:15:47.927Z,100404.50
2018-03-28T08:18:16.301Z,100410.94
2018-03-28T08:20:45.425Z,100412.34
2018-03-28T08:23:13.735Z,100407.61
2018-03-28T08:25:42.103Z,100404.36
2018-03-28T08:28:10.565Z,100410.64
2018-03-28T08:30:39.691Z,100396.25
2018-03-28T08:33:08.023Z,100407.22
2018-03-28T08:35:36.356Z,100407.93
2018-03-28T08:38:04.708Z,100403.71
2018-03-28T08:40:33.847Z,100397.47
2018-03-28T08:43:02.160Z,100400.41
2018-03-28T08:45:30.509Z,100404.59
2018-03-28T08:47:58.819Z,100397.42
2018-03-28T08:50:27.161Z,100391.59
2018-03-28T08:52:55.498Z,100397.87
2018-03-28T08:55:23.821Z,100395.23
2018-03-28T08:57:52.175Z,100388.09
2018-03-28T09:00:21.389Z,100392.80
2018-03-28T09:02:50.521Z,100394.80
2018-03-28T09:05:19.017Z,100391.48
2018-03-28T09:07:47.343Z,100385.58
2018-03-28T09:10:16.416Z,100380.52
2018-03-28T09:12:44.760Z,100381.03
2018-03-28T09:15:13.127Z,100380.78
2018-03-28T09:17:41.456Z,100382.08
2018-03-28T09:20:09.796Z,100377.91
2018-03-28T09:22:38.127Z,100368.74
2018-03-28T09:25:06.475Z,100368.25
2018-03-28T09:27:35.529Z,100371.69
2018-03-28T09:30:04.631Z,100368.48
2018-03-28T09:32:33.769Z,100358.50
2018-03-28T09:35:02.145Z,100362.27
2018-03-28T09:37:30.461Z,100356.69
2018-03-28T09:39:58.788Z,100364.34
2018-03-28T09:42:27.182Z,100362.92
2018-03-28T09:44:55.503Z,100363.59
2018-03-28T09:47:23.811Z,100361.65
2018-03-28T09:49:52.896Z,100357.68
2018-03-28T09:52:22.025Z,100359.84
2018-03-28T09:54:50.367Z,100360.70
2018-03-28T09:57:21.055Z,100365.28
2018-03-28T09:59:49.820Z,100365.43
2018-03-28T10:02:18.147Z,100368.63
2018-03-28T10:04:50.246Z,100368.46
2018-03-28T10:07:18.581Z,100369.84
2018-03-28T10:09:46.938Z,100362.66
2018-03-28T10:12:16.145Z,100360.42
2018-03-28T10:14:44.475Z,100362.30
2018-03-28T10:17:12.845Z,100366.93
2018-03-28T10:19:41.228Z,100361.53
2018-03-28T10:22:09.574Z,100360.44
2018-03-28T10:24:37.940Z,100365.87
2018-03-28T10:27:07.037Z,100354.00
2018-03-28T10:29:36.198Z,100347.24
2018-03-28T10:32:04.547Z,100344.03
2018-03-28T10:34:32.861Z,100340.73
2018-03-28T10:37:01.183Z,100335.87
2018-03-28T10:39:30.297Z,100335.98
2018-03-28T10:41:58.641Z,100332.11
2018-03-28T10:44:27.761Z,100324.87
2018-03-28T10:46:56.850Z,100319.48
2018-03-28T10:49:25.951Z,100316.62
2018-03-28T10:51:55.071Z,100312.27
2018-03-28T10:54:23.404Z,100307.52
2018-03-28T10:56:51.734Z,100307.04
2018-03-28T10:59:20.057Z,100292.16
2018-03-28T11:01:48.384Z,100289.00
2018-03-28T11:04:17.747Z,100278.22
2018-03-28T11:06:46.081Z,100272.97
2018-03-28T11:09:14.445Z,100275.12
2018-03-28T11:11:43.576Z,100269.69
2018-03-28T11:14:11.913Z,100254.92
2018-03-28T11:16:40.252Z,100256.55
2018-03-28T11:19:08.625Z,100251.24
2018-03-28T11:21:36.960Z,100244.50
2018-03-28T11:24:06.108Z,100239.89
2018-03-28T11:26:35.023Z,100242.52
2018-03-28T11:29:03.373Z,100243.97
2018-03-28T11:31:31.789Z,100237.60
2018-03-28T11:34:00.185Z,100226.23
2018-03-28T11:36:28.533Z,100220.63
2018-03-28T11:38:56.889Z,100210.05
2018-03-28T11:41:25.980Z,100208.59
2018-03-28T11:43:55.091Z,100206.48
2018-03-28T11:46:23.456Z,100204.72
2018-03-28T11:48:52.568Z,100197.70
2018-03-28T11:51:20.906Z,100194.23
2018-03-28T11:53:49.245Z,100180.08
2018-03-28T11:56:17.583Z,100180.69
2018-03-28T11:58:45.914Z,100181.42
2018-03-28T12:01:14.517Z,100178.10
2018-03-28T12:03:42.957Z,100181.19
2018-03-28T12:06:11.316Z,100171.36
2018-03-28T12:08:39.674Z,100174.20
2018-03-28T12:11:08.017Z,100166.41
2018-03-28T12:13:37.722Z,100167.30
2018-03-28T12:16:06.093Z,100163.88
2018-03-28T12:18:36.195Z,100154.33
2018-03-28T12:21:04.634Z,100155.52
2018-03-28T12:23:33.020Z,100157.25
2018-03-28T12:26:01.403Z,100144.52
2018-03-28T12:28:29.816Z,100144.93
2018-03-28T12:30:58.211Z,100130.83
2018-03-28T12:33:26.576Z,100120.62
2018-03-28T12:35:55.148Z,100116.95
2018-03-28T12:38:23.525Z,100120.59
2018-03-28T12:40:52.376Z,100117.37
2018-03-28T12:43:21.452Z,100112.16
2018-03-28T12:45:49.811Z,100113.27
2018-03-28T12:48:18.267Z,100107.94
2018-03-28T12:50:47.550Z,100103.83
2018-03-28T12:53:16.656Z,100101.63
2018-03-28T12:55:45.019Z,100097.52
2018-03-28T12:58:13.376Z,100096.62
2018-03-28T13:00:41.732Z,100090.41
2018-03-28T13:03:10.096Z,100078.69
2018-03-28T13:05:38.483Z,100078.88
2018-03-28T13:08:06.847Z,100079.73
2018-03-28T13:10:35.178Z,100069.06
2018-03-28T13:13:03.496Z,100068.95
2018-03-28T13:15:32.600Z,100061.97
2018-03-28T13:18:01.698Z,100057.19
2018-03-28T13:20:31.167Z,100045.78
2018-03-28T13:22:59.591Z,100050.30
2018-03-28T13:25:28.685Z,100050.42
2018-03-28T13:27:58.021Z,100040.05
2018-03-28T13:30:26.448Z,100034.84
2018-03-28T13:32:55.559Z,100025.73
2018-03-28T13:35:23.945Z,100021.39
2018-03-28T13:37:52.298Z,100014.91
2018-03-28T13:40:20.998Z,100008.18
2018-03-28T13:42:49.360Z,100004.47
2018-03-28T13:45:17.716Z,100003.45
2018-03-28T13:47:46.046Z,99999.35
2018-03-28T13:50:15.908Z,100008.19
2018-03-28T13:52:44.294Z,99999.05
2018-03-28T13:55:12.642Z,99989.43
2018-03-28T13:57:40.974Z,99985.84
2018-03-28T14:00:09.890Z,99981.39
2018-03-28T14:02:38.364Z,99972.57
2018-03-28T14:05:06.695Z,99974.32
2018-03-28T14:07:35.056Z,99969.43
2018-03-28T14:10:06.413Z,99965.82
2018-03-28T14:12:34.746Z,99960.72
2018-03-28T14:15:03.090Z,99963.30
2018-03-28T14:17:32.170Z,99962.73
2018-03-28T14:20:00.486Z,99958.13
2018-03-28T14:22:28.846Z,99949.59
2018-03-28T14:24:57.928Z,99948.77
2018-03-28T14:27:26.235Z,99954.03
2018-03-28T14:29:55.303Z,99943.92
2018-03-28T14:32:23.636Z,99945.06
2018-03-28T14:34:52.020Z,99934.36
2018-03-28T14:37:20.335Z,99932.98
2018-03-28T14:39:48.642Z,99941.35
2018-03-28T14:42:17.040Z,99927.06
2018-03-28T14:44:46.161Z,99931.74
2018-03-28T14:47:14.579Z,99927.27
2018-03-28T14:49:42.935Z,99923.23
2018-03-28T14:52:11.254Z,99918.73
2018-03-28T14:54:39.628Z,99913.91
2018-03-28T14:57:08.752Z,99911.63
2018-03-28T14:59:37.825Z,99909.05
2018-03-28T15:02:06.160Z,99905.05
2018-03-28T15:04:34.516Z,99895.02
2018-03-28T15:07:03.626Z,99894.45
2018-03-28T15:09:32.740Z,99896.75
2018-03-28T15:12:01.111Z,99890.48
2018-03-28T15:14:29.443Z,99885.49
2018-03-28T15:16:57.779Z,99886.59
2018-03-28T15:19:26.096Z,99875.27
2018-03-28T15:21:54.406Z,99874.17
2018-03-28T15:24:22.751Z,99868.44
2018-03-28T15:26:51.095Z,99864.84
2018-03-28T15:29:20.280Z,99864.84
2018-03-28T15:31:49.355Z,99871.83
2018-03-28T15:34:17.709Z,99875.13
2018-03-28T15:36:46.056Z,99874.33
2018-03-28T15:39:14.368Z,99875.09
2018-03-28T15:41:42.709Z,99872.95
2018-03-28T15:44:11.798Z,99872.11
2018-03-28T15:46:40.911Z,99866.05
2018-03-28T15:49:10.193Z,99860.55
2018-03-28T15:51:39.663Z,99856.34
2018-03-28T15:54:08.056Z,99852.46
2018-03-28T15:56:36.374Z,99855.67
2018-03-28T15:59:21.930Z,99841.98
2018-03-28T16:01:51.721Z,99853.63
2018-03-28T16:04:20.865Z,99853.69
2018-03-28T16:06:49.954Z,99860.73
2018-03-28T16:09:18.346Z,99855.47
2018-03-28T16:11:47.438Z,99856.91
2018-03-28T16:14:16.517Z,99862.35
2018-03-28T16:16:46.744Z,99863.30
2018-03-28T16:19:15.862Z,99871.16
2018-03-28T16:21:45.455Z,99862.80
2018-03-28T16:24:13.789Z,99869.44
2018-03-28T16:26:42.109Z,99874.55
2018-03-28T16:29:10.458Z,99873.94
2018-03-28T16:31:39.459Z,99874.72
2018-03-28T16:34:08.548Z,99875.66
2018-03-28T16:36:37.122Z,99879.63
2018-03-28T16:39:06.376Z,99885.95
2018-03-28T16:41:34.757Z,99889.09
2018-03-28T16:44:03.132Z,99893.08
2018-03-28T16:46:31.551Z,99894.06
2018-03-28T16:49:00.675Z,99895.48
2018-03-28T16:51:29.047Z,99898.52
2018-03-28T16:53:57.496Z,99920.62
2018-03-28T16:56:27.424Z,99917.58
2018-03-28T16:58:55.808Z,99922.03
2018-03-28T17:01:24.967Z,99919.41
2018-03-28T17:03:53.278Z,99935.31
2018-03-28T17:06:21.636Z,99937.11
2018-03-28T17:08:49.938Z,99948.28
2018-03-28T17:11:18.250Z,99945.31
2018-03-28T17:13:47.285Z,99959.86
2018-03-28T17:16:15.630Z,99965.00
2018-03-28T17:18:44.137Z,99974.36
2018-03-28T17:21:13.858Z,99978.77
2018-03-28T17:23:42.228Z,99997.13
2018-03-28T17:26:10.539Z,99996.03
2018-03-28T17:28:38.860Z,100006.59
2018-03-28T17:31:07.971Z,100008.62
2018-03-28T17:33:36.297Z,100007.37
2018-03-28T17:36:04.640Z,100015.00
2018-03-28T17:38:32.949Z,100020.09
2018-03-28T17:41:01.283Z,100025.59
2018-03-28T17:43:30.433Z,100020.80
2018-03-28T17:45:58.777Z,100032.84
2018-03-28T17:48:27.091Z,100030.58
2018-03-28T17:50:55.571Z,100037.19
2018-03-28T17:53:23.989Z,100046.94
2018-03-28T17:55:53.082Z,100045.01
2018-03-28T17:58:21.404Z,100045.45
2018-03-28T18:00:49.723Z,100063.13
2018-03-28T18:03:18.086Z,100057.55
2018-03-28T18:05:46.408Z,100059.28
2018-03-28T18:08:15.597Z,100060.92
2018-03-28T18:10:47.239Z,100072.81
2018-03-28T18:13:15.604Z,100067.20
2018-03-28T18:15:43.922Z,100068.61
2018-03-28T18:18:12.241Z,100074.98
2018-03-28T18:20:40.606Z,100070.58
2018-03-28T18:23:09.744Z,100086.75
2018-03-28T18:25:38.042Z,100081.88
2018-03-28T18:28:06.371Z,100085.99
2018-03-28T18:30:35.501Z,100092.06
2018-03-28T18:33:03.867Z,100091.10
2018-03-28T18:35:32.490Z,100095.53
2018-03-28T18:38:00.856Z,100098.82
2018-03-28T18:40:29.223Z,100117.79
2018-03-28T18:42:58.606Z,100113.50
2018-03-28T18:45:28.261Z,100117.23
2018-03-28T18:47:56.559Z,100122.75
2018-03-28T18:50:24.921Z,100128.36
2018-03-28T18:52:53.501Z,100131.20
2018-03-28T18:55:22.493Z,100141.69
2018-03-28T18:57:50.812Z,100145.80
2018-03-28T19:00:19.228Z,100163.22
2018-03-28T19:02:47.772Z,100163.86
2018-03-28T19:05:16.793Z,100168.47
2018-03-28T19:07:45.995Z,100180.05
2018-03-28T19:10:15.508Z,100174.26
2018-03-28T19:12:44.743Z,100177.81
2018-03-28T19:15:13.040Z,100173.34
2018-03-28T19:17:41.401Z,100178.38
2018-03-28T19:20:09.713Z,100182.13
2018-03-28T19:22:38.123Z,100177.91
2018-03-28T19:25:06.546Z,100180.95
2018-03-28T19:27:34.836Z,100188.30
2018-03-28T19:30:03.201Z,100187.13
2018-03-28T19:32:31.543Z,100192.16
2018-03-28T19:34:59.905Z,100191.59
2018-03-28T19:37:28.269Z,100182.31
2018-03-28T19:39:56.625Z,100188.71
2018-03-28T19:42:25.206Z,100192.30
2018-03-28T19:44:53.508Z,100186.83
2018-03-28T19:47:21.943Z,100194.73
2018-03-28T19:49:50.259Z,100201.31
2018-03-28T19:52:18.570Z,100203.28
2018-03-28T19:54:46.863Z,100204.86
2018-03-28T19:57:15.186Z,100209.80
2018-03-28T19:59:44.273Z,100212.35
2018-03-28T20:02:13.439Z,100219.02
2018-03-28T20:04:41.763Z,100222.52
2018-03-28T20:07:10.857Z,100216.45
2018-03-28T20:09:39.965Z,100227.09
2018-03-28T20:12:08.276Z,100223.95
2018-03-28T20:14:36.585Z,100225.54
2018-03-28T20:17:04.948Z,100239.86
2018-03-28T20:19:33.248Z,100234.66
2018-03-28T20:22:02.401Z,100236.89
2018-03-28T20:24:30.741Z,100236.80
2018-03-28T20:27:00.563Z,100240.50
2018-03-28T20:29:28.985Z,100242.33
2018-03-28T20:31:57.352Z,100245.15
2018-03-28T20:34:27.269Z,100248.97
2018-03-28T20:36:56.379Z,100247.15
2018-03-28T20:39:24.735Z,100257.23
2018-03-28T20:41:54.003Z,100251.09
2018-03-28T20:44:22.315Z,100247.85
2018-03-28T20:46:51.483Z,100254.94
2018-03-28T20:49:19.815Z,100260.84
2018-03-28T20:51:48.937Z,100263.08
2018-03-28T20:54:17.263Z,100267.05
2018-03-28T20:56:45.613Z,100270.69
2018-03-28T20:59:13.969Z,100276.62
2018-03-28T21:01:42.841Z,100268.10
2018-03-28T21:04:11.903Z,100277.51
2018-03-28T21:06:40.375Z,100274.89
2018-03-28T21:09:08.705Z,100288.03
2018-03-28T21:11:38.490Z,100291.32
2018-03-28T21:14:06.820Z,100289.00
2018-03-28T21:16:35.230Z,100292.97
2018-03-28T21:19:03.557Z,100288.91
2018-03-28T21:21:32.635Z,100292.79
2018-03-28T21:24:00.954Z,100293.61
2018-03-28T21:26:30.055Z,100301.55
2018-03-28T21:28:58.410Z,100300.23
2018-03-28T21:31:27.645Z,100298.96
2018-03-28T21:33:56.008Z,100301.75
2018-03-28T21:36:25.095Z,100303.91
2018-03-28T21:38:54.200Z,100312.25
2018-03-28T21:41:23.507Z,100314.66
2018-03-28T21:43:52.601Z,100308.88
2018-03-28T21:46:21.691Z,100306.64
2018-03-28T21:48:50.801Z,100309.78
2018-03-28T21:51:19.928Z,100309.48
2018-03-28T21:53:48.244Z,100319.30
2018-03-28T21:56:16.575Z,100315.02
2018-03-28T21:58:45.670Z,100315.42
2018-03-28T22:01:13.981Z,100313.05
2018-03-28T22:03:42.288Z,100321.20
2018-03-28T22:06:10.707Z,100324.25
2018-03-28T22:08:39.048Z,100324.95
2018-03-28T22:11:07.497Z,100322.95
2018-03-28T22:13:35.818Z,100332.31
2018-03-28T22:16:04.135Z,100329.34
2018-03-28T22:18:32.489Z,100326.58
2018-03-28T22:21:00.841Z,100337.08
2018-03-28T22:23:29.197Z,100339.81
2018-03-28T22:25:57.566Z,100333.45
2018-03-28T22:28:26.679Z,100334.75
2018-03-28T22:30:55.301Z,100335.39
2018-03-28T22:33:23.640Z,100336.30
2018-03-28T22:35:51.946Z,100344.02
2018-03-28T22:38:20.264Z,100353.45
2018-03-28T22:40:48.595Z,100353.52
2018-03-28T22:43:16.945Z,100356.51
2018-03-28T22:45:46.173Z,100357.16
2018-03-28T22:48:14.513Z,100356.74
2018-03-28T22:50:44.372Z,100359.37
2018-03-28T22:53:12.707Z,100365.02
2018-03-28T22:55:41.455Z,100367.58
2018-03-28T22:58:09.773Z,100369.48
2018-03-28T23:00:38.129Z,100374.05
2018-03-28T23:03:07.538Z,100372.72
2018-03-28T23:05:35.978Z,100372.31
2018-03-28T23:08:04.306Z,100377.11
2018-03-28T23:10:33.369Z,100383.97
2018-03-28T23:13:01.729Z,100378.61
2018-03-28T23:15:30.821Z,100385.23
2018-03-28T23:17:59.950Z,100391.44
2018-03-28T23:20:28.262Z,100398.38
2018-03-28T23:22:56.665Z,100397.11
2018-03-28T23:25:24.966Z,100388.91
2018-03-28T23:27:54.065Z,100394.73
2018-03-28T23:30:23.174Z,100388.90
2018-03-28T23:32:52.264Z,100399.05
2018-03-28T23:35:21.369Z,100396.14
2018-03-28T23:37:50.470Z,100404.70
2018-03-28T23:40:19.561Z,100406.25
2018-03-28T23:42:48.699Z,100411.70
2018-03-28T23:45:17.145Z,100410.37
2018-03-28T23:47:46.351Z,100414.58
2018-03-28T23:50:14.716Z,100415.14
2018-03-28T23:52:43.141Z,100408.12
2018-03-28T23:55:11.540Z,100414.90
2018-03-28T23:57:39.849Z,100407.45
